Time,TemperatureF,DewpointF,PressureIn,WindDirection,WindDirectionDegrees,WindSpeedMPH,WindSpeedGustMPH,Humidity,HourlyPrecipIn,Conditions,Clouds,dailyrainin,SoftwareType,DateUTC
2013-03-19 00:03:00,43.0,42.0,29.94,SW,219,1.0,3.0,96,0.00,,,0.64,,2013-03-19 04:03:00,
2013-03-19 00:13:00,43.0,42.0,29.94,SW,219,1.0,3.0,96,0.00,,,0.64,,2013-03-19 04:13:00,
2013-03-19 00:23:00,43.0,42.0,29.93,SW,219,0.0,0.0,96,0.00,,,0.64,,2013-03-19 04:23:00,
2013-03-19 00:33:00,42.0,41.0,29.94,SW,219,1.0,4.0,96,0.00,,,0.64,,2013-03-19 04:33:00,
2013-03-19 00:43:00,42.0,41.0,29.94,SW,219,1.0,4.0,96,0.00,,,0.64,,2013-03-19 04:43:00,
2013-03-19 00:53:00,43.0,42.0,29.95,SW,214,0.0,2.0,97,0.00,,,0.64,,2013-03-19 04:53:00,
2013-03-19 01:02:00,42.0,41.0,29.95,SW,214,0.0,1.0,97,0.00,,,0.64,,2013-03-19 05:02:00,
2013-03-19 01:12:00,42.0,41.0,29.95,SW,214,0.0,1.0,97,0.00,,,0.64,,2013-03-19 05:12:00,
2013-03-19 01:22:00,42.0,41.0,29.95,South,172,0.0,1.0,97,0.00,,,0.64,,2013-03-19 05:22:00,
2013-03-19 01:32:00,42.0,41.0,29.95,South,172,0.0,0.0,97,0.00,,,0.64,,2013-03-19 05:32:00,
2013-03-19 01:43:00,42.0,41.0,29.95,South,172,0.0,0.0,97,0.00,,,0.64,,2013-03-19 05:43:00,
2013-03-19 01:52:00,42.0,41.0,29.95,South,172,0.0,0.0,97,0.00,,,0.64,,2013-03-19 05:52:00,
2013-03-19 02:02:00,42.0,41.0,29.96,South,172,0.0,0.0,97,0.00,,,0.64,,2013-03-19 06:02:00,
2013-03-19 02:12:00,42.0,41.0,29.96,South,172,0.0,0.0,97,0.00,,,0.64,,2013-03-19 06:12:00,
2013-03-19 02:22:00,42.0,41.0,29.95,South,172,0.0,0.0,97,0.00,,,0.64,,2013-03-19 06:22:00,
2013-03-19 02:32:00,42.0,41.0,29.95,South,172,0.0,0.0,97,0.00,,,0.64,,2013-03-19 06:32:00,
2013-03-19 02:42:00,42.0,41.0,29.95,South,172,0.0,0.0,97,0.00,,,0.64,,2013-03-19 06:42:00,
2013-03-19 02:52:00,42.0,41.0,29.95,South,169,0.0,2.0,97,0.00,,,0.64,,2013-03-19 06:52:00,
2013-03-19 03:02:00,42.0,41.0,29.96,South,169,0.0,1.0,97,0.00,,,0.64,,2013-03-19 07:02:00,
2013-03-19 03:12:00,42.0,41.0,29.96,South,169,0.0,1.0,97,0.00,,,0.64,,2013-03-19 07:12:00,
2013-03-19 03:22:00,42.0,41.0,29.96,South,169,0.0,3.0,97,0.00,,,0.64,,2013-03-19 07:22:00,
2013-03-19 03:32:00,42.0,41.0,29.96,SW,222,0.0,4.0,97,0.00,,,0.64,,2013-03-19 07:32:00,
2013-03-19 03:42:00,42.0,41.0,29.96,SW,222,0.0,4.0,97,0.00,,,0.64,,2013-03-19 07:42:00,
2013-03-19 03:53:00,43.0,42.0,29.96,SW,222,0.0,0.0,97,0.00,,,0.64,,2013-03-19 07:53:00,
2013-03-19 04:03:00,43.0,42.0,29.96,SW,222,0.0,1.0,97,0.00,,,0.64,,2013-03-19 08:03:00,
2013-03-19 04:12:00,43.0,42.0,29.96,SW,222,0.0,1.0,97,0.00,,,0.64,,2013-03-19 08:12:00,
2013-03-19 04:22:00,43.0,42.0,29.96,SW,222,0.0,3.0,97,0.00,,,0.64,,2013-03-19 08:22:00,
2013-03-19 04:32:00,43.0,42.0,29.96,SW,222,0.0,0.0,97,0.01,,,0.65,,2013-03-19 08:32:00,
2013-03-19 04:42:00,43.0,42.0,29.96,SW,222,0.0,0.0,97,0.01,,,0.65,,2013-03-19 08:42:00,
2013-03-19 04:52:00,43.0,42.0,29.96,SSW,206,0.0,4.0,97,0.01,,,0.65,,2013-03-19 08:52:00,
2013-03-19 05:02:00,44.0,43.0,29.96,WSW,252,10.0,15.0,97,0.01,,,0.65,,2013-03-19 09:02:00,
2013-03-19 05:12:00,44.0,43.0,29.96,WSW,252,10.0,15.0,97,0.01,,,0.65,,2013-03-19 09:12:00,
2013-03-19 05:23:00,44.0,43.0,29.97,SW,223,8.0,17.0,97,0.01,,,0.65,,2013-03-19 09:23:00,
2013-03-19 05:33:00,44.0,43.0,29.99,SW,218,3.0,10.0,97,0.01,,,0.66,,2013-03-19 09:33:00,
2013-03-19 05:43:00,44.0,43.0,29.99,SW,218,3.0,10.0,97,0.01,,,0.66,,2013-03-19 09:43:00,
2013-03-19 05:53:00,44.0,43.0,29.99,West,274,8.0,13.0,96,0.01,,,0.66,,2013-03-19 09:53:00,
2013-03-19 06:04:00,43.0,42.0,29.99,West,276,10.0,18.0,95,0.01,,,0.66,,2013-03-19 10:04:00,
2013-03-19 06:13:00,43.0,42.0,29.99,West,276,10.0,18.0,95,0.01,,,0.66,,2013-03-19 10:13:00,
2013-03-19 06:23:00,43.0,41.0,30.00,NW,324,7.0,12.0,94,0.01,,,0.66,,2013-03-19 10:23:00,
2013-03-19 06:33:00,42.0,40.0,30.01,WNW,300,6.0,10.0,94,0.00,,,0.66,,2013-03-19 10:33:00,
2013-03-19 06:42:00,42.0,40.0,30.01,WNW,300,6.0,10.0,94,0.00,,,0.66,,2013-03-19 10:42:00,
2013-03-19 06:53:00,41.0,39.0,30.02,WNW,288,10.0,15.0,93,0.00,,,0.66,,2013-03-19 10:53:00,
2013-03-19 07:03:00,41.0,39.0,30.03,West,272,6.0,16.0,93,0.00,,,0.66,,2013-03-19 11:03:00,
2013-03-19 07:12:00,41.0,39.0,30.03,West,272,6.0,16.0,93,0.00,,,0.66,,2013-03-19 11:12:00,
2013-03-19 07:22:00,41.0,39.0,30.03,West,272,6.0,16.0,93,0.00,,,0.66,,2013-03-19 11:22:00,
2013-03-19 07:33:00,39.0,37.0,30.04,West,266,7.0,12.0,93,0.00,,,0.66,,2013-03-19 11:33:00,
2013-03-19 07:43:00,39.0,37.0,30.04,West,266,7.0,12.0,93,0.00,,,0.66,,2013-03-19 11:43:00,
2013-03-19 07:53:00,38.0,36.0,30.05,West,269,5.0,8.0,94,0.00,,,0.66,,2013-03-19 11:53:00,
2013-03-19 08:02:00,37.0,35.0,30.07,West,266,5.0,10.0,94,0.00,,,0.66,,2013-03-19 12:02:00,
2013-03-19 08:12:00,37.0,35.0,30.07,West,266,5.0,10.0,94,0.00,,,0.66,,2013-03-19 12:12:00,
2013-03-19 08:22:00,37.0,35.0,30.07,North,11,3.0,9.0,93,0.00,,,0.66,,2013-03-19 12:22:00,
2013-03-19 08:33:00,36.0,31.0,30.07,NNE,12,4.0,8.0,83,0.00,,,0.66,,2013-03-19 12:33:00,
2013-03-19 08:42:00,36.0,31.0,30.07,NNE,12,4.0,8.0,83,0.00,,,0.66,,2013-03-19 12:42:00,
2013-03-19 08:52:00,35.0,30.0,30.07,NNE,24,4.0,7.0,82,0.00,,,0.66,,2013-03-19 12:52:00,
2013-03-19 09:02:00,35.0,29.0,30.07,NNE,23,2.0,6.0,79,0.00,,,0.66,,2013-03-19 13:02:00,
2013-03-19 09:12:00,35.0,29.0,30.07,NNE,23,2.0,6.0,79,0.00,,,0.66,,2013-03-19 13:12:00,
2013-03-19 09:23:00,35.0,28.0,30.08,NW,310,2.0,9.0,76,0.00,,,0.66,,2013-03-19 13:23:00,
2013-03-19 09:33:00,35.0,26.0,30.07,NNE,15,0.0,4.0,70,0.00,,,0.66,,2013-03-19 13:33:00,
2013-03-19 09:42:00,35.0,26.0,30.07,NNE,15,0.0,4.0,70,0.00,,,0.66,,2013-03-19 13:42:00,
2013-03-19 09:53:00,35.0,26.0,30.07,NNE,15,0.0,4.0,70,0.00,,,0.66,,2013-03-19 13:53:00,
2013-03-19 10:02:00,36.0,28.0,30.07,NE,50,0.0,4.0,72,0.00,,,0.66,,2013-03-19 14:02:00,
2013-03-19 10:12:00,36.0,28.0,30.07,NE,50,0.0,4.0,72,0.00,,,0.66,,2013-03-19 14:12:00,
2013-03-19 10:22:00,37.0,29.0,30.07,ESE,115,1.0,4.0,74,0.00,,,0.66,,2013-03-19 14:22:00,
2013-03-19 10:32:00,38.0,29.0,30.07,East,79,1.0,4.0,70,0.00,,,0.66,,2013-03-19 14:32:00,
2013-03-19 10:42:00,38.0,29.0,30.07,East,79,1.0,4.0,70,0.00,,,0.66,,2013-03-19 14:42:00,
2013-03-19 10:53:00,39.0,29.0,30.07,East,79,2.0,4.0,68,0.00,,,0.66,,2013-03-19 14:53:00,
2013-03-19 11:02:00,40.0,29.0,30.07,ESE,117,1.0,3.0,65,0.00,,,0.66,,2013-03-19 15:02:00,
2013-03-19 11:12:00,40.0,29.0,30.07,ESE,117,1.0,3.0,65,0.00,,,0.66,,2013-03-19 15:12:00,
2013-03-19 11:22:00,41.0,30.0,30.09,ENE,72,0.0,3.0,64,0.00,,,0.66,,2013-03-19 15:22:00,
2013-03-19 11:34:00,42.0,32.0,30.10,WNW,288,6.0,12.0,68,0.00,,,0.66,,2013-03-19 15:34:00,
2013-03-19 11:44:00,42.0,32.0,30.10,WNW,288,6.0,12.0,68,0.00,,,0.66,,2013-03-19 15:44:00,
2013-03-19 11:54:00,42.0,31.0,30.11,West,259,2.0,13.0,65,0.00,,,0.66,,2013-03-19 15:54:00,
2013-03-19 12:04:00,43.0,30.0,30.11,NW,312,1.0,9.0,61,0.00,,,0.66,,2013-03-19 16:04:00,
2013-03-19 12:13:00,43.0,30.0,30.11,NW,312,1.0,9.0,61,0.00,,,0.66,,2013-03-19 16:13:00,
2013-03-19 12:24:00,43.0,28.0,30.11,WSW,250,6.0,14.0,55,0.00,,,0.66,,2013-03-19 16:24:00,
2013-03-19 12:34:00,43.0,28.0,30.11,WSW,250,6.0,14.0,55,0.00,,,0.66,,2013-03-19 16:34:00,
2013-03-19 12:44:00,43.0,28.0,30.11,WSW,250,6.0,14.0,55,0.00,,,0.66,,2013-03-19 16:44:00,
2013-03-19 12:54:00,43.0,26.0,30.11,WSW,256,7.0,14.0,50,0.00,,,0.66,,2013-03-19 16:54:00,
2013-03-19 13:03:00,44.0,26.0,30.11,WNW,285,2.0,8.0,48,0.00,,,0.66,,2013-03-19 17:03:00,
2013-03-19 13:14:00,44.0,26.0,30.11,WNW,285,2.0,8.0,48,0.00,,,0.66,,2013-03-19 17:14:00,
2013-03-19 13:23:00,46.0,25.0,30.11,South,172,0.0,7.0,43,0.00,,,0.66,,2013-03-19 17:23:00,
2013-03-19 13:34:00,47.0,30.0,30.10,ESE,123,0.0,4.0,52,0.00,,,0.66,,2013-03-19 17:34:00,
2013-03-19 13:44:00,47.0,30.0,30.10,ESE,123,0.0,4.0,52,0.00,,,0.66,,2013-03-19 17:44:00,
2013-03-19 13:53:00,47.0,30.0,30.10,ESE,123,0.0,4.0,52,0.00,,,0.66,,2013-03-19 17:53:00,
2013-03-19 14:03:00,49.0,26.0,30.10,West,278,5.0,14.0,41,0.00,,,0.66,,2013-03-19 18:03:00,
2013-03-19 14:14:00,49.0,26.0,30.10,West,278,5.0,14.0,41,0.00,,,0.66,,2013-03-19 18:14:00,
2013-03-19 14:23:00,49.0,32.0,30.11,SW,224,4.0,16.0,52,0.00,,,0.66,,2013-03-19 18:23:00,
2013-03-19 14:34:00,49.0,27.0,30.11,SSW,212,8.0,15.0,43,0.00,,,0.64,,2013-03-19 18:34:00,
2013-03-19 14:43:00,49.0,27.0,30.11,SSW,212,8.0,15.0,43,0.00,,,0.64,,2013-03-19 18:43:00,
2013-03-19 14:53:00,50.0,25.0,30.11,NE,37,2.0,10.0,38,0.00,,,0.64,,2013-03-19 18:53:00,
2013-03-19 15:03:00,51.0,26.0,30.10,West,279,6.0,18.0,37,0.00,,,0.64,,2013-03-19 19:03:00,
2013-03-19 15:12:00,51.0,26.0,30.10,West,279,6.0,18.0,37,0.00,,,0.64,,2013-03-19 19:12:00,
2013-03-19 15:22:00,51.0,26.0,30.11,West,271,7.0,20.0,37,0.00,,,0.64,,2013-03-19 19:22:00,
2013-03-19 15:33:00,51.0,29.0,30.11,WSW,255,3.0,18.0,43,0.00,,,0.63,,2013-03-19 19:33:00,
2013-03-19 15:43:00,51.0,29.0,30.11,WSW,255,3.0,18.0,43,0.00,,,0.63,,2013-03-19 19:43:00,
2013-03-19 15:52:00,51.0,25.0,30.11,NW,310,5.0,13.0,36,0.00,,,0.63,,2013-03-19 19:52:00,
2013-03-19 16:03:00,51.0,27.0,30.11,North,354,7.0,21.0,39,0.00,,,0.63,,2013-03-19 20:03:00,
2013-03-19 16:12:00,51.0,27.0,30.11,North,354,7.0,21.0,39,0.00,,,0.63,,2013-03-19 20:12:00,
2013-03-19 16:22:00,51.0,27.0,30.11,North,354,7.0,21.0,39,0.00,,,0.63,,2013-03-19 20:22:00,
2013-03-19 16:33:00,51.0,28.0,30.11,West,278,4.0,15.0,41,0.00,,,0.61,,2013-03-19 20:33:00,
2013-03-19 16:43:00,51.0,28.0,30.11,West,278,4.0,15.0,41,0.00,,,0.61,,2013-03-19 20:43:00,
2013-03-19 16:52:00,52.0,28.0,30.11,SE,145,5.0,15.0,39,0.00,,,0.61,,2013-03-19 20:52:00,
2013-03-19 17:02:00,51.0,26.0,30.12,North,354,8.0,20.0,38,0.00,,,0.61,,2013-03-19 21:02:00,
2013-03-19 17:12:00,51.0,26.0,30.12,North,354,8.0,20.0,38,0.00,,,0.61,,2013-03-19 21:12:00,
2013-03-19 17:23:00,51.0,29.0,30.12,North,1,3.0,13.0,43,0.00,,,0.61,,2013-03-19 21:23:00,
2013-03-19 17:34:00,51.0,29.0,30.12,North,1,3.0,13.0,43,0.00,,,0.61,,2013-03-19 21:34:00,
2013-03-19 17:43:00,51.0,29.0,30.12,North,1,3.0,13.0,43,0.00,,,0.61,,2013-03-19 21:43:00,
2013-03-19 17:53:00,51.0,25.0,30.12,WSW,247,2.0,14.0,36,0.00,,,0.53,,2013-03-19 21:53:00,
2013-03-19 18:03:00,52.0,29.0,30.13,SSW,210,6.0,15.0,41,0.00,,,0.53,,2013-03-19 22:03:00,
2013-03-19 18:13:00,52.0,29.0,30.13,SSW,210,6.0,15.0,41,0.00,,,0.53,,2013-03-19 22:13:00,
2013-03-19 18:24:00,51.0,23.0,30.13,West,280,6.0,14.0,33,0.00,,,0.53,,2013-03-19 22:24:00,
2013-03-19 18:33:00,51.0,27.0,30.13,NW,325,7.0,15.0,39,0.00,,,0.43,,2013-03-19 22:33:00,
2013-03-19 18:43:00,51.0,27.0,30.13,NW,325,7.0,15.0,39,0.00,,,0.43,,2013-03-19 22:43:00,
2013-03-19 18:53:00,50.0,25.0,30.12,SW,229,5.0,20.0,38,0.00,,,0.43,,2013-03-19 22:53:00,
2013-03-19 19:03:00,48.0,22.0,30.13,NNW,340,3.0,10.0,35,0.00,,,0.43,,2013-03-19 23:03:00,
2013-03-19 19:12:00,48.0,22.0,30.13,NNW,340,3.0,10.0,35,0.00,,,0.43,,2013-03-19 23:12:00,
2013-03-19 19:22:00,48.0,22.0,30.13,NNW,340,3.0,10.0,35,0.00,,,0.43,,2013-03-19 23:22:00,
2013-03-19 19:33:00,46.0,17.0,30.14,North,349,3.0,14.0,31,0.00,,,0.16,,2013-03-19 23:33:00,
2013-03-19 19:43:00,46.0,17.0,30.14,North,349,3.0,14.0,31,0.00,,,0.16,,2013-03-19 23:43:00,
2013-03-19 19:53:00,45.0,16.0,30.15,North,352,5.0,20.0,31,0.00,,,0.16,,2013-03-19 23:53:00,
2013-03-19 20:03:00,45.0,20.0,30.15,NW,320,4.0,13.0,37,0.00,,,0.16,,2013-03-20 00:03:00,
2013-03-19 20:13:00,45.0,20.0,30.15,NW,320,4.0,13.0,37,0.00,,,0.16,,2013-03-20 00:13:00,
2013-03-19 20:22:00,44.0,17.0,30.15,West,266,4.0,11.0,33,0.00,,,0.16,,2013-03-20 00:22:00,
2013-03-19 20:33:00,43.0,17.0,30.16,NNW,342,6.0,11.0,35,0.00,,,0.03,,2013-03-20 00:33:00,
2013-03-19 20:42:00,43.0,17.0,30.16,NNW,342,6.0,11.0,35,0.00,,,0.03,,2013-03-20 00:42:00,
2013-03-19 20:52:00,43.0,15.0,30.16,NW,311,9.0,15.0,32,0.00,,,0.03,,2013-03-20 00:52:00,
2013-03-19 21:03:00,42.0,15.0,30.17,NW,311,5.0,13.0,33,0.00,,,0.03,,2013-03-20 01:03:00,
2013-03-19 21:12:00,42.0,15.0,30.17,NW,311,5.0,13.0,33,0.00,,,0.03,,2013-03-20 01:12:00,
2013-03-19 21:22:00,42.0,17.0,30.17,West,264,4.0,10.0,36,0.00,,,0.03,,2013-03-20 01:22:00,
2013-03-19 21:32:00,41.0,12.0,30.17,West,273,2.0,9.0,30,0.00,,,0.02,,2013-03-20 01:32:00,
2013-03-19 21:43:00,41.0,12.0,30.17,West,273,2.0,9.0,30,0.00,,,0.02,,2013-03-20 01:43:00,
2013-03-19 21:52:00,40.0,11.0,30.18,West,264,3.0,9.0,30,0.00,,,0.02,,2013-03-20 01:52:00,
2013-03-19 22:02:00,40.0,13.0,30.18,West,271,5.0,8.0,32,0.00,,,0.02,,2013-03-20 02:02:00,
2013-03-19 22:12:00,40.0,13.0,30.18,West,271,5.0,8.0,32,0.00,,,0.02,,2013-03-20 02:12:00,
2013-03-19 22:22:00,39.0,12.0,30.17,WSW,255,4.0,8.0,33,0.00,,,0.02,,2013-03-20 02:22:00,
2013-03-19 22:32:00,39.0,15.0,30.17,West,273,3.0,7.0,37,0.00,,,0.02,,2013-03-20 02:32:00,
2013-03-19 22:43:00,39.0,15.0,30.17,West,273,3.0,7.0,37,0.00,,,0.02,,2013-03-20 02:43:00,
2013-03-19 22:52:00,39.0,12.0,30.17,WNW,284,5.0,10.0,33,0.00,,,0.02,,2013-03-20 02:52:00,
2013-03-19 23:02:00,39.0,12.0,30.17,WSW,247,2.0,12.0,33,0.00,,,0.02,,2013-03-20 03:02:00,
2013-03-19 23:12:00,39.0,12.0,30.18,WNW,302,0.0,7.0,32,0.00,,,0.02,,2013-03-20 03:12:00,
2013-03-19 23:22:00,39.0,12.0,30.18,WNW,302,0.0,7.0,32,0.00,,,0.02,,2013-03-20 03:22:00,
2013-03-19 23:34:00,39.0,14.0,30.18,WNW,288,0.0,6.0,36,0.00,,,0.02,,2013-03-20 03:34:00,
2013-03-19 23:43:00,39.0,14.0,30.18,WNW,288,0.0,6.0,36,0.00,,,0.02,,2013-03-20 03:43:00,
2013-03-19 23:53:00,38.0,13.0,30.18,WNW,288,0.0,2.0,35,0.00,,,0.02,,2013-03-20 03:53:00,